Raisin, California
Current Conditions -  °F | °C
As of 5:53 PM on Wednesday 17 Dec 2014 (Local Time) from KFAT Reporting Station
Scattered Clouds Scattered Clouds  
Wind Chill: 52°   Ceiling: Unl
Heat Index: 52°   Visibility: 10mi
Dew Point: 47°   Wind: 6mph
Humidity: 83%   Direction: 120°ESE
Pressure: 30.1"   Gusts: NA
Location:  36.6°N, 119.9°W
Report Text: KFAT 180153Z 12005KT 10SM FEW060 SCT150 11/08 A3010 RMK AO2 SLP192 T01110083
Loading
Personal Weather Stations






























Interactive Weather Map New forecast layout! Learn more

10-Day Weather Forecast

Advertisements
Track Severe Weather on mobile